createdAt,value
2023-05-18T00:02:26.731Z,3.00
2023-05-18T00:04:54.249Z,3.23
2023-05-18T00:07:21.821Z,3.20
2023-05-18T00:09:49.471Z,3.80
2023-05-18T00:12:17.045Z,3.37
2023-05-18T00:14:45.459Z,3.57
2023-05-18T00:17:13.056Z,3.60
2023-05-18T00:19:40.655Z,4.23
2023-05-18T00:22:09.057Z,4.23
2023-05-18T00:24:37.217Z,3.90
2023-05-18T00:27:04.265Z,3.83
2023-05-18T00:29:32.118Z,3.43
2023-05-18T00:31:59.842Z,3.67
2023-05-18T00:34:27.341Z,4.47
2023-05-18T00:36:55.014Z,3.90
2023-05-18T00:39:23.390Z,4.30
2023-05-18T00:41:51.007Z,3.77
2023-05-18T00:44:18.705Z,3.83
2023-05-18T00:46:47.081Z,3.77
2023-05-18T00:49:14.686Z,3.83
2023-05-18T00:51:42.344Z,3.80
2023-05-18T00:54:09.961Z,3.63
2023-05-18T00:56:40.139Z,4.07
2023-05-18T00:59:07.850Z,4.07
2023-05-18T01:01:35.550Z,3.60
2023-05-18T01:04:03.269Z,3.77
2023-05-18T01:06:33.382Z,4.10
2023-05-18T01:09:01.003Z,3.77
2023-05-18T01:11:50.448Z,4.27
2023-05-18T01:14:43.503Z,3.77
2023-05-18T01:17:26.607Z,4.00
2023-05-18T01:20:12.544Z,3.97
2023-05-18T01:22:57.701Z,3.63
2023-05-18T01:25:34.085Z,4.17
2023-05-18T01:28:02.302Z,3.90
2023-05-18T01:30:29.911Z,4.13
2023-05-18T01:32:58.301Z,4.10
2023-05-18T01:35:26.441Z,3.50
2023-05-18T01:37:54.058Z,3.87
2023-05-18T01:40:21.691Z,3.60
2023-05-18T01:42:50.086Z,4.23
2023-05-18T01:45:17.703Z,3.70
2023-05-18T01:47:45.444Z,4.03
2023-05-18T01:50:18.484Z,3.87
2023-05-18T01:52:48.749Z,3.57
2023-05-18T01:55:16.372Z,4.13
2023-05-18T01:57:44.795Z,3.87
2023-05-18T02:00:12.382Z,3.70
2023-05-18T02:02:40.040Z,4.30
2023-05-18T02:05:07.739Z,3.87
2023-05-18T02:07:35.263Z,3.67
2023-05-18T02:10:02.906Z,3.63
2023-05-18T02:12:30.523Z,4.37
2023-05-18T02:14:58.131Z,3.57
2023-05-18T02:17:25.794Z,4.30
2023-05-18T02:19:53.387Z,4.90
2023-05-18T02:22:21.008Z,4.00
2023-05-18T02:24:48.602Z,3.80
2023-05-18T02:27:16.234Z,4.23
2023-05-18T02:29:43.838Z,3.83
2023-05-18T02:32:12.225Z,3.70
2023-05-18T02:34:39.882Z,4.33
2023-05-18T02:37:08.245Z,3.90
2023-05-18T02:39:35.847Z,3.57
2023-05-18T02:42:03.512Z,4.27
2023-05-18T02:44:31.139Z,4.80
2023-05-18T02:46:58.730Z,4.73
2023-05-18T02:49:26.380Z,3.33
2023-05-18T02:51:53.989Z,4.00
2023-05-18T02:54:21.603Z,3.63
2023-05-18T02:56:49.308Z,4.68
2023-05-18T02:59:17.616Z,3.70
2023-05-18T03:01:45.265Z,3.93
2023-05-18T03:04:13.620Z,3.87
2023-05-18T03:06:41.237Z,3.57
2023-05-18T03:09:09.607Z,3.87
2023-05-18T03:11:37.248Z,3.50
2023-05-18T03:14:04.862Z,4.20
2023-05-18T03:16:32.532Z,3.80
2023-05-18T03:19:00.167Z,3.50
2023-05-18T03:21:27.740Z,3.50
2023-05-18T03:23:56.086Z,3.50
2023-05-18T03:26:23.720Z,3.53
2023-05-18T03:28:51.322Z,4.57
2023-05-18T03:31:18.954Z,3.40
2023-05-18T03:33:46.844Z,3.40
2023-05-18T03:36:14.459Z,3.40
2023-05-18T03:38:42.062Z,3.93
2023-05-18T03:41:09.710Z,3.43
2023-05-18T03:43:37.310Z,4.35
2023-05-18T03:46:04.939Z,3.83
2023-05-18T03:48:32.567Z,4.00
2023-05-18T03:51:00.187Z,3.37
2023-05-18T03:53:27.793Z,3.20
2023-05-18T03:55:55.434Z,3.67
2023-05-18T03:58:23.049Z,4.23
2023-05-18T04:00:50.661Z,3.70
2023-05-18T04:03:18.751Z,4.45
2023-05-18T04:05:47.097Z,4.33
2023-05-18T04:08:14.979Z,4.60
2023-05-18T04:10:42.596Z,4.60
2023-05-18T04:13:10.188Z,4.62
2023-05-18T04:15:37.806Z,4.50
2023-05-18T04:18:05.486Z,4.03
2023-05-18T04:20:33.045Z,3.30
2023-05-18T04:23:00.668Z,3.90
2023-05-18T04:25:28.853Z,4.30
2023-05-18T04:27:55.919Z,3.87
2023-05-18T04:30:23.530Z,3.80
2023-05-18T04:32:51.257Z,4.15
2023-05-18T04:35:18.803Z,3.30
2023-05-18T04:37:46.410Z,3.53
2023-05-18T04:40:14.277Z,3.60
2023-05-18T04:42:47.403Z,3.00
2023-05-18T04:45:14.961Z,3.40
2023-05-18T04:47:42.657Z,3.57
2023-05-18T04:50:10.208Z,3.40
2023-05-18T04:52:37.823Z,3.20
2023-05-18T04:55:05.490Z,3.40
2023-05-18T04:57:33.111Z,3.47
2023-05-18T05:00:00.702Z,3.50
2023-05-18T05:02:29.069Z,3.27
2023-05-18T05:04:57.360Z,4.03
2023-05-18T05:07:24.946Z,2.87
2023-05-18T05:09:52.589Z,3.30
2023-05-18T05:12:20.203Z,2.93
2023-05-18T05:14:47.799Z,3.33
2023-05-18T05:17:15.448Z,3.20
2023-05-18T05:19:43.073Z,3.33
2023-05-18T05:22:10.715Z,3.60
2023-05-18T05:24:38.346Z,2.90
2023-05-18T05:27:06.933Z,3.33
2023-05-18T05:29:34.526Z,3.27
2023-05-18T05:32:02.732Z,2.90
2023-05-18T05:34:30.288Z,3.30
2023-05-18T05:36:57.914Z,3.30
2023-05-18T05:39:25.603Z,3.00
2023-05-18T05:41:53.230Z,2.70
2023-05-18T05:44:20.831Z,3.65
2023-05-18T05:46:49.029Z,3.17
2023-05-18T05:49:16.613Z,3.40
2023-05-18T05:51:44.961Z,3.13
2023-05-18T05:54:12.586Z,2.57
2023-05-18T05:56:40.507Z,3.10
2023-05-18T05:59:08.098Z,3.33
2023-05-18T06:01:35.848Z,3.15
2023-05-18T06:04:03.395Z,2.40
2023-05-18T06:06:30.990Z,3.50
2023-05-18T06:08:58.628Z,2.73
2023-05-18T06:11:26.235Z,2.70
2023-05-18T06:13:53.837Z,2.37
2023-05-18T06:16:22.304Z,3.03
2023-05-18T06:18:49.891Z,2.70
2023-05-18T06:21:17.484Z,2.80
2023-05-18T06:23:45.117Z,2.53
2023-05-18T06:26:12.729Z,2.47
2023-05-18T06:28:41.604Z,2.40
2023-05-18T06:31:08.009Z,2.53
2023-05-18T06:33:35.613Z,2.20
2023-05-18T06:36:03.217Z,2.27
2023-05-18T06:38:30.864Z,2.17
2023-05-18T06:40:58.479Z,3.07
2023-05-18T06:43:26.084Z,2.47
2023-05-18T06:45:53.749Z,2.50
2023-05-18T06:48:21.338Z,2.27
2023-05-18T06:50:48.941Z,2.53
2023-05-18T06:53:16.663Z,2.23
2023-05-18T06:55:44.276Z,2.17
2023-05-18T06:58:11.893Z,2.27
2023-05-18T07:00:39.584Z,2.30
2023-05-18T07:03:07.334Z,2.17
2023-05-18T07:05:36.895Z,2.10
2023-05-18T07:08:02.544Z,2.20
2023-05-18T07:10:30.037Z,2.73
2023-05-18T07:12:57.651Z,2.50
2023-05-18T07:15:26.056Z,2.50
2023-05-18T07:17:53.725Z,2.10
2023-05-18T07:20:23.127Z,2.30
2023-05-18T07:22:50.535Z,2.43
2023-05-18T07:25:18.917Z,2.20
2023-05-18T07:27:47.292Z,2.43
2023-05-18T07:30:15.715Z,2.37
2023-05-18T07:32:43.350Z,2.60
2023-05-18T07:35:10.944Z,2.10
2023-05-18T07:37:38.578Z,2.40
2023-05-18T07:40:06.236Z,2.30
2023-05-18T07:42:33.819Z,2.20
2023-05-18T07:45:01.448Z,2.27
2023-05-18T07:47:29.066Z,2.20
2023-05-18T07:49:56.683Z,2.03
2023-05-18T07:52:25.088Z,2.00
2023-05-18T07:54:52.732Z,2.13
2023-05-18T07:57:20.324Z,2.03
2023-05-18T07:59:47.993Z,2.17
2023-05-18T08:02:15.720Z,2.07
2023-05-18T08:04:43.279Z,2.73
2023-05-18T08:07:11.733Z,2.37
2023-05-18T08:09:39.348Z,2.30
2023-05-18T08:12:06.963Z,2.53
2023-05-18T08:14:34.595Z,2.10
2023-05-18T08:17:02.255Z,2.20
2023-05-18T08:19:29.995Z,2.10
2023-05-18T08:21:57.502Z,2.37
2023-05-18T08:24:25.093Z,2.10
2023-05-18T08:26:52.693Z,2.37
2023-05-18T08:29:20.341Z,2.43
2023-05-18T08:31:49.691Z,2.20
2023-05-18T08:34:15.548Z,2.27
2023-05-18T08:36:43.189Z,1.70
2023-05-18T08:39:11.585Z,2.53
2023-05-18T08:41:39.190Z,2.07
2023-05-18T08:44:06.837Z,2.20
2023-05-18T08:46:34.457Z,2.58
2023-05-18T08:49:02.910Z,2.27
2023-05-18T08:51:30.494Z,2.30
2023-05-18T08:53:58.108Z,2.20
2023-05-18T08:56:25.738Z,2.03
2023-05-18T08:58:56.049Z,2.10
2023-05-18T09:01:24.500Z,2.70
2023-05-18T09:03:52.025Z,2.70
2023-05-18T09:06:19.702Z,2.87
2023-05-18T09:08:47.313Z,2.00
2023-05-18T09:11:14.957Z,2.17
2023-05-18T09:13:42.589Z,2.30
2023-05-18T09:16:10.270Z,2.30
2023-05-18T09:18:37.886Z,2.57
2023-05-18T09:21:05.465Z,2.27
2023-05-18T09:23:33.082Z,2.23
2023-05-18T09:26:00.705Z,2.30
2023-05-18T09:28:28.383Z,2.20
2023-05-18T09:30:55.994Z,2.10
2023-05-18T09:33:23.768Z,3.07
2023-05-18T09:35:52.028Z,2.30
2023-05-18T09:38:19.649Z,2.40
2023-05-18T09:40:48.059Z,2.13
2023-05-18T09:43:15.725Z,2.10
2023-05-18T09:45:43.337Z,2.33
2023-05-18T09:48:10.987Z,2.00
2023-05-18T09:50:38.642Z,2.70
2023-05-18T09:53:09.329Z,5.57
2023-05-18T09:55:45.935Z,2.80
2023-05-18T09:58:13.525Z,2.60
2023-05-18T10:00:49.839Z,2.27
2023-05-18T10:03:17.449Z,1.90
2023-05-18T10:05:45.063Z,2.13
2023-05-18T10:08:12.685Z,2.40
2023-05-18T10:10:40.379Z,2.20
2023-05-18T10:13:08.761Z,2.30
2023-05-18T10:15:37.151Z,2.73
2023-05-18T10:18:04.855Z,2.17
2023-05-18T10:20:32.599Z,2.00
2023-05-18T10:23:00.067Z,2.30
2023-05-18T10:25:27.677Z,2.40
2023-05-18T10:27:57.681Z,2.17
2023-05-18T10:30:25.319Z,2.00
2023-05-18T10:32:53.032Z,2.10
2023-05-18T10:35:20.591Z,1.80
2023-05-18T10:37:48.967Z,1.53
2023-05-18T10:40:17.472Z,2.10
2023-05-18T10:42:45.006Z,2.10
2023-05-18T10:45:13.398Z,2.00
2023-05-18T10:47:41.962Z,2.10
2023-05-18T10:50:09.455Z,2.03
2023-05-18T10:52:40.040Z,2.23
2023-05-18T10:55:07.683Z,2.15
2023-05-18T10:57:40.928Z,1.90
2023-05-18T11:00:08.543Z,1.90
2023-05-18T11:02:36.229Z,2.28
2023-05-18T11:05:03.827Z,2.07
2023-05-18T11:07:32.179Z,2.00
2023-05-18T11:10:00.622Z,2.03
2023-05-18T11:12:28.202Z,1.70
2023-05-18T11:14:55.878Z,2.03
2023-05-18T11:17:26.422Z,1.70
2023-05-18T11:20:09.053Z,2.23
2023-05-18T11:22:43.234Z,2.23
2023-05-18T11:25:10.826Z,1.83
2023-05-18T11:27:38.441Z,2.00
2023-05-18T11:30:15.117Z,1.53
2023-05-18T11:32:34.752Z,2.15
2023-05-18T11:35:02.985Z,2.30
2023-05-18T11:37:40.460Z,3.33
2023-05-18T11:40:13.505Z,1.90
2023-05-18T11:42:41.075Z,1.97
2023-05-18T11:45:08.764Z,2.20
2023-05-18T11:47:36.474Z,2.07
2023-05-18T11:50:03.984Z,2.30
2023-05-18T11:52:31.652Z,2.40
2023-05-18T11:55:01.966Z,1.97
2023-05-18T11:57:35.714Z,2.20
2023-05-18T12:00:03.367Z,1.77
2023-05-18T12:02:31.857Z,1.90
2023-05-18T12:05:02.648Z,2.03
2023-05-18T12:07:30.293Z,2.47
2023-05-18T12:10:09.436Z,1.77
2023-05-18T12:12:37.104Z,2.13
2023-05-18T12:15:04.682Z,2.10
2023-05-18T12:17:44.280Z,1.60
2023-05-18T12:20:18.336Z,1.97
2023-05-18T12:22:52.221Z,2.13
2023-05-18T12:25:19.619Z,1.80
2023-05-18T12:27:49.894Z,2.13
2023-05-18T12:30:23.630Z,1.60
2023-05-18T12:32:57.314Z,1.93
2023-05-18T12:35:28.001Z,1.47
2023-05-18T12:38:01.067Z,2.00
2023-05-18T12:40:28.707Z,1.67
2023-05-18T12:43:01.866Z,2.03
2023-05-18T12:45:29.655Z,1.77
2023-05-18T12:47:57.211Z,2.07
2023-05-18T12:50:24.776Z,1.90
2023-05-18T12:52:52.387Z,1.53
2023-05-18T12:55:22.854Z,2.20
2023-05-18T12:58:02.273Z,2.00
2023-05-18T13:00:32.524Z,1.67
2023-05-18T13:03:10.967Z,2.07
2023-05-18T13:05:36.970Z,2.30
2023-05-18T13:08:04.571Z,2.30
2023-05-18T13:10:35.203Z,2.12
2023-05-18T13:13:05.234Z,1.80
2023-05-18T13:15:35.565Z,2.17
2023-05-18T13:18:04.037Z,1.60
2023-05-18T13:20:44.028Z,1.63
2023-05-18T13:23:14.315Z,2.10
2023-05-18T13:25:41.947Z,1.60
2023-05-18T13:28:11.948Z,1.70
2023-05-18T13:30:40.408Z,1.90
2023-05-18T13:33:08.096Z,2.30
2023-05-18T13:35:36.400Z,1.77
2023-05-18T13:38:04.092Z,1.60
2023-05-18T13:40:31.706Z,1.93
2023-05-18T13:42:59.365Z,2.27
2023-05-18T13:45:27.017Z,2.03
2023-05-18T13:47:54.669Z,2.20
2023-05-18T13:50:23.128Z,1.73
2023-05-18T13:52:50.682Z,2.25
2023-05-18T13:55:18.270Z,1.83
2023-05-18T13:57:45.866Z,1.77
2023-05-18T14:00:13.643Z,1.87
2023-05-18T14:02:41.236Z,2.37
2023-05-18T14:05:08.840Z,2.07
2023-05-18T14:07:36.432Z,1.80
2023-05-18T14:10:04.036Z,1.77
2023-05-18T14:12:31.667Z,1.80
2023-05-18T14:14:59.299Z,1.83
2023-05-18T14:17:26.942Z,1.73
2023-05-18T14:19:54.527Z,1.80
2023-05-18T14:22:22.201Z,1.90
2023-05-18T14:24:50.563Z,1.70
2023-05-18T14:27:18.166Z,1.77
2023-05-18T14:29:45.859Z,1.67
2023-05-18T14:32:13.492Z,1.70
2023-05-18T14:34:41.102Z,1.60
2023-05-18T14:37:08.755Z,1.77
2023-05-18T14:39:36.339Z,2.00
2023-05-18T14:42:04.787Z,1.83
2023-05-18T14:44:32.414Z,1.60
2023-05-18T14:47:03.047Z,2.10
2023-05-18T14:49:30.579Z,1.83
2023-05-18T14:51:58.465Z,1.90
2023-05-18T14:54:26.095Z,1.87
2023-05-18T14:56:53.665Z,1.80
2023-05-18T14:59:21.315Z,1.90
2023-05-18T15:01:48.954Z,1.70
2023-05-18T15:04:16.624Z,2.03
2023-05-18T15:06:44.198Z,2.20
2023-05-18T15:09:11.810Z,2.00
2023-05-18T15:11:39.423Z,2.10
2023-05-18T15:14:07.085Z,1.80
2023-05-18T15:16:34.749Z,1.77
2023-05-18T15:19:02.355Z,1.77
2023-05-18T15:21:29.955Z,1.93
2023-05-18T15:23:57.559Z,1.43
2023-05-18T15:26:25.171Z,1.83
2023-05-18T15:28:52.852Z,2.03
2023-05-18T15:31:20.469Z,1.90
2023-05-18T15:33:48.832Z,1.67
2023-05-18T15:36:16.465Z,2.00
2023-05-18T15:38:44.048Z,1.53
2023-05-18T15:41:11.667Z,1.60
2023-05-18T15:43:39.282Z,2.00
2023-05-18T15:46:06.970Z,1.73
2023-05-18T15:48:35.324Z,2.10
2023-05-18T15:51:02.981Z,2.33
2023-05-18T15:53:31.347Z,1.60
2023-05-18T15:55:59.826Z,2.03
2023-05-18T15:58:28.136Z,1.77
2023-05-18T16:00:55.802Z,2.13
2023-05-18T16:03:23.557Z,1.83
2023-05-18T16:05:51.029Z,1.90
2023-05-18T16:08:18.663Z,1.67
2023-05-18T16:10:47.042Z,1.63
2023-05-18T16:13:15.453Z,1.70
2023-05-18T16:15:43.055Z,1.73
2023-05-18T16:18:10.733Z,1.90
2023-05-18T16:20:38.330Z,1.43
2023-05-18T16:23:05.933Z,1.67
2023-05-18T16:25:33.549Z,1.83
2023-05-18T16:28:01.187Z,2.00
2023-05-18T16:30:29.812Z,1.60
2023-05-18T16:32:57.275Z,1.70
2023-05-18T16:35:24.827Z,2.17
2023-05-18T16:37:52.411Z,1.60
2023-05-18T16:40:20.041Z,1.60
2023-05-18T16:42:47.691Z,1.98
2023-05-18T16:45:16.077Z,1.67
2023-05-18T16:47:44.611Z,2.00
2023-05-18T16:50:12.845Z,1.57
2023-05-18T16:52:40.463Z,1.83
2023-05-18T16:55:08.107Z,2.10
2023-05-18T16:57:36.173Z,2.03
2023-05-18T17:00:03.762Z,1.60
2023-05-18T17:02:32.845Z,1.57
2023-05-18T17:05:00.576Z,1.80
2023-05-18T17:07:28.186Z,1.93
2023-05-18T17:09:56.559Z,1.87
2023-05-18T17:12:24.215Z,2.10
2023-05-18T17:14:52.288Z,1.90
2023-05-18T17:17:19.444Z,1.50
2023-05-18T17:19:47.100Z,1.87
2023-05-18T17:22:14.690Z,2.20
2023-05-18T17:24:42.339Z,2.20
2023-05-18T17:27:10.030Z,1.97
2023-05-18T17:29:37.696Z,1.60
2023-05-18T17:32:05.447Z,1.90
2023-05-18T17:34:33.021Z,2.07
2023-05-18T17:37:00.621Z,1.90
2023-05-18T17:39:28.261Z,1.80
2023-05-18T17:41:55.950Z,2.03
2023-05-18T17:44:23.546Z,2.07
2023-05-18T17:46:51.241Z,1.83
2023-05-18T17:49:18.814Z,1.93
2023-05-18T17:51:46.411Z,1.80
2023-05-18T17:54:14.802Z,2.00
2023-05-18T17:56:42.458Z,1.80
2023-05-18T17:59:10.095Z,1.43
2023-05-18T18:01:37.752Z,1.60
2023-05-18T18:04:05.454Z,2.10
2023-05-18T18:06:32.968Z,1.70
2023-05-18T18:09:00.597Z,1.77
2023-05-18T18:11:28.318Z,1.80
2023-05-18T18:13:55.888Z,2.03
2023-05-18T18:16:24.289Z,1.93
2023-05-18T18:18:52.026Z,1.83
2023-05-18T18:21:19.589Z,1.70
2023-05-18T18:23:47.981Z,1.93
2023-05-18T18:26:16.387Z,1.90
2023-05-18T18:28:44.018Z,1.80
2023-05-18T18:31:11.678Z,2.13
2023-05-18T18:33:39.234Z,1.70
2023-05-18T18:36:06.858Z,2.30
2023-05-18T18:38:34.469Z,2.20
2023-05-18T18:41:02.110Z,2.10
2023-05-18T18:43:29.738Z,2.10
2023-05-18T18:45:57.499Z,2.13
2023-05-18T18:48:25.095Z,1.67
2023-05-18T18:50:52.729Z,2.20
2023-05-18T18:53:20.333Z,2.00
2023-05-18T18:55:47.977Z,2.03
2023-05-18T18:58:15.619Z,1.97
2023-05-18T19:00:43.224Z,2.20
2023-05-18T19:03:10.986Z,2.13
2023-05-18T19:05:38.524Z,2.53
2023-05-18T19:08:06.138Z,2.50
2023-05-18T19:10:33.775Z,2.10
2023-05-18T19:13:02.146Z,2.10
2023-05-18T19:15:29.892Z,2.10
2023-05-18T19:17:57.441Z,2.10
2023-05-18T19:20:25.007Z,2.10
2023-05-18T19:22:52.618Z,2.43
2023-05-18T19:25:20.251Z,2.40
2023-05-18T19:27:47.842Z,3.83
2023-05-18T19:30:15.491Z,2.13
2023-05-18T19:32:43.208Z,1.97
2023-05-18T19:35:10.749Z,2.28
2023-05-18T19:37:38.356Z,2.33
2023-05-18T19:40:05.978Z,2.67
2023-05-18T19:42:33.591Z,2.28
2023-05-18T19:45:01.970Z,2.27
2023-05-18T19:47:29.635Z,2.50
2023-05-18T19:49:57.228Z,2.20
2023-05-18T19:52:24.841Z,2.20
2023-05-18T19:54:52.488Z,2.20
2023-05-18T19:57:20.126Z,2.40
2023-05-18T19:59:52.099Z,2.10
2023-05-18T20:02:19.736Z,2.10
2023-05-18T20:04:47.306Z,2.13
2023-05-18T20:07:14.925Z,1.90
2023-05-18T20:09:42.576Z,2.60
2023-05-18T20:12:10.198Z,2.50
2023-05-18T20:14:37.795Z,3.03
2023-05-18T20:17:05.513Z,2.37
2023-05-18T20:19:33.084Z,2.60
2023-05-18T20:22:00.747Z,2.50
2023-05-18T20:24:28.335Z,2.03
2023-05-18T20:26:55.952Z,2.30
2023-05-18T20:29:23.560Z,2.10
2023-05-18T20:31:51.231Z,2.03
2023-05-18T20:34:18.812Z,2.07
2023-05-18T20:36:47.189Z,2.23
2023-05-18T20:39:15.591Z,2.33
2023-05-18T20:41:43.210Z,2.50
2023-05-18T20:44:10.824Z,2.60
2023-05-18T20:46:38.628Z,2.62
2023-05-18T20:49:06.117Z,2.33
2023-05-18T20:51:33.707Z,1.93
2023-05-18T20:54:01.358Z,2.90
2023-05-18T20:56:28.961Z,2.37
2023-05-18T20:58:56.565Z,2.67
2023-05-18T21:01:25.055Z,2.60
2023-05-18T21:03:52.744Z,2.40
2023-05-18T21:06:20.979Z,2.60
2023-05-18T21:08:49.439Z,2.90
2023-05-18T21:11:16.998Z,2.57
2023-05-18T21:13:44.613Z,2.70
2023-05-18T21:16:12.384Z,2.40
2023-05-18T21:18:39.896Z,2.57
2023-05-18T21:21:07.510Z,2.70
2023-05-18T21:23:35.153Z,2.40
2023-05-18T21:26:02.765Z,2.80
2023-05-18T21:28:30.366Z,2.53
2023-05-18T21:30:58.026Z,2.93
2023-05-18T21:33:26.457Z,2.20
2023-05-18T21:35:54.045Z,2.73
2023-05-18T21:38:21.679Z,2.93
2023-05-18T21:40:49.282Z,3.00
2023-05-18T21:43:16.881Z,2.53
2023-05-18T21:45:44.568Z,3.07
2023-05-18T21:48:12.195Z,3.10
2023-05-18T21:50:39.767Z,3.28
2023-05-18T21:53:07.420Z,3.05
2023-05-18T21:55:35.027Z,2.90
2023-05-18T21:58:02.651Z,3.20
2023-05-18T22:00:30.424Z,3.83
2023-05-18T22:02:57.957Z,3.57
2023-05-18T22:05:25.560Z,3.63
2023-05-18T22:07:53.221Z,3.00
2023-05-18T22:10:20.839Z,3.50
2023-05-18T22:12:49.210Z,2.73
2023-05-18T22:15:16.893Z,2.83
2023-05-18T22:17:44.607Z,2.93
2023-05-18T22:20:12.140Z,3.20
2023-05-18T22:22:40.550Z,3.00
2023-05-18T22:25:08.186Z,3.20
2023-05-18T22:27:35.799Z,3.10
2023-05-18T22:30:04.254Z,2.80
2023-05-18T22:32:31.955Z,3.23
2023-05-18T22:34:59.470Z,3.10
2023-05-18T22:37:27.164Z,3.07
2023-05-18T22:39:55.531Z,3.00
2023-05-18T22:42:23.145Z,3.30
2023-05-18T22:44:50.809Z,2.90
2023-05-18T22:47:18.407Z,3.00
2023-05-18T22:49:46.060Z,3.20
2023-05-18T22:52:13.707Z,3.70
2023-05-18T22:54:41.312Z,3.60
2023-05-18T22:57:09.689Z,4.20
2023-05-18T22:59:38.122Z,3.70
2023-05-18T23:02:05.808Z,3.40
2023-05-18T23:04:34.207Z,3.50
2023-05-18T23:07:02.551Z,3.10
2023-05-18T23:09:30.175Z,3.67
2023-05-18T23:11:57.779Z,3.43
2023-05-18T23:14:25.474Z,3.40
2023-05-18T23:16:53.074Z,3.67
2023-05-18T23:19:20.757Z,3.10
2023-05-18T23:21:48.330Z,3.30
2023-05-18T23:24:15.939Z,4.07
2023-05-18T23:26:44.343Z,3.77
2023-05-18T23:29:12.030Z,3.97
2023-05-18T23:31:39.651Z,4.00
2023-05-18T23:34:08.074Z,3.87
2023-05-18T23:36:36.431Z,3.20
2023-05-18T23:39:04.029Z,4.47
2023-05-18T23:41:31.643Z,3.93
2023-05-18T23:43:59.333Z,4.10
2023-05-18T23:46:27.687Z,4.23
2023-05-18T23:48:55.282Z,4.10
2023-05-18T23:51:22.923Z,4.37
2023-05-18T23:53:50.557Z,5.37
2023-05-18T23:56:18.898Z,4.23
2023-05-18T23:58:46.585Z,3.90
